Main page
METAR-TAF:

METAR-TAF

Airports :

Jönköping Airport

Jönköping, Sweden

latitude: 57-46N, longitude: 014-05E, elevation: 226 m

Current weather observation

The report was made 18 minutes ago, at 23:20 UTC
Wind 9 kt from the Southwest
Temperature 15°C
Humidity 94%
Pressure 1014 hPa
Visibility 10 km or more
Scattered clouds at a height of 1500 ft

METAR: ESGJ 172320Z 23009KT 9999 SCT015 15/14 Q1014

Time: 01:38 (23:38 UTC)

Forecast

The report was made 3 hours and 8 minutes ago, at 20:30 UTC
Forecast valid from 17 at 21 UTC to 18 at 01 UTC
Wind 10 kt from the West/Southwest
Visibility 10 km or more
Broken clouds at a height of 3500 ft
Probability 40%
from 17 at 21 UTC to 17 at 23 UTC
Broken clouds at a height of 1200 ft
Probability 40%
from 17 at 23 UTC to 18 at 01 UTC
Broken clouds at a height of 800 ft

TAF: ESGJ 172030Z 1721/1801 24010KT 9999 BKN035 PROB40 1721/1723 BKN012 PROB40 1723/1801 BKN008

Weather observations and forecasts of more than 4000 airports (METAR and TAF reports).

The available stations are represented by yellow and red dots on the map.

Hover mouse over dot to see the name of the station.

Then click to see weather observations and forecasts.

To change the map : click on the green buttons with a black cross to zoom in, on the green button with a dash to zoom out, or on the green arrows for adjacent maps.


METAR-TAF: